Washington, Iowa
Current Conditions -  °F | °C
As of 11:15 AM on Friday 24 Oct 2014 (Local Time) from KAWG Reporting Station
Moderate Fog Moderate Fog  
Wind Chill: 57°   Ceiling: 300
Heat Index: 57°   Visibility: 0.25mi
Dew Point: 57°   Wind: 9mph
Humidity: 100%   Direction: 170°S
Pressure: 30.04"   Gusts: NA
Location:  41.3°N, 91.69°W
Report Text: KAWG 241615Z AUTO 17008KT 1/4SM FG OVC003 14/14 A3004 RMK AO2
Loading
Personal Weather Stations






























Interactive Weather Map
Tropical Storm Tracking
New forecast layout! Learn more

10-Day Weather Forecast

Advertisements
Track Severe Weather on mobile